Troy, Alabama
Current Conditions -  °F | °C
As of 3:53 AM on Wednesday 26 Nov 2014 (Local Time) from KTOI Reporting Station
Clear Clear  
Wind Chill:   Ceiling: Unl
Heat Index:   Visibility: 10mi
Dew Point:   Wind: 3mph
Humidity: 60%   Direction: NA
Pressure: 30.11"   Gusts: NA
Location:  31.81°N, 85.97°W
Report Text: KTOI 260953Z AUTO VRB03KT 10SM CLR 07/00 A3011 RMK AO2 SLP195 T00720000
Loading
Personal Weather Stations






























Interactive Weather Map New forecast layout! Learn more

10-Day Weather Forecast

Advertisements
Track Severe Weather on mobile